sensor_id;sensor_type;location;lat;lon;timestamp;pressure;altitude;pressure_sealevel;temperature;humidity
9277;BME280;4676;42.678;23.244;2023-03-11T00:00:40;92338.25;;;9.41;nan
9277;BME280;4676;42.678;23.244;2023-03-11T00:03:09;92329.22;;;9.24;nan
9277;BME280;4676;42.678;23.244;2023-03-11T00:05:39;92323.69;;;9.05;nan
9277;BME280;4676;42.678;23.244;2023-03-11T00:08:07;92310.59;;;8.86;nan
9277;BME280;4676;42.678;23.244;2023-03-11T00:10:37;92322.06;;;8.77;nan
9277;BME280;4676;42.678;23.244;2023-03-11T00:13:06;92320.53;;;8.75;nan
9277;BME280;4676;42.678;23.244;2023-03-11T00:15:33;92311.78;;;8.66;nan
9277;BME280;4676;42.678;23.244;2023-03-11T00:18:00;92313.97;;;8.72;nan
9277;BME280;4676;42.678;23.244;2023-03-11T00:20:30;92316.72;;;8.82;nan
9277;BME280;4676;42.678;23.244;2023-03-11T00:22:58;92313.19;;;8.84;nan
9277;BME280;4676;42.678;23.244;2023-03-11T00:25:27;92309.66;;;8.87;nan
9277;BME280;4676;42.678;23.244;2023-03-11T00:27:54;92310.06;;;8.81;nan
9277;BME280;4676;42.678;23.244;2023-03-11T00:30:22;92296.94;;;8.88;nan
9277;BME280;4676;42.678;23.244;2023-03-11T00:32:52;92292.19;;;8.84;nan
9277;BME280;4676;42.678;23.244;2023-03-11T00:35:22;92303.25;;;8.95;nan
9277;BME280;4676;42.678;23.244;2023-03-11T00:37:52;92295.25;;;8.89;nan
9277;BME280;4676;42.678;23.244;2023-03-11T00:40:21;92278.41;;;8.75;nan
9277;BME280;4676;42.678;23.244;2023-03-11T00:42:49;92300.09;;;8.92;nan
9277;BME280;4676;42.678;23.244;2023-03-11T00:45:16;92297.09;;;8.99;nan
9277;BME280;4676;42.678;23.244;2023-03-11T00:47:43;92298.13;;;9.10;nan
9277;BME280;4676;42.678;23.244;2023-03-11T00:50:13;92285.50;;;9.10;nan
9277;BME280;4676;42.678;23.244;2023-03-11T00:52:42;92276.34;;;9.21;nan
9277;BME280;4676;42.678;23.244;2023-03-11T00:55:12;92270.28;;;9.24;nan
9277;BME280;4676;42.678;23.244;2023-03-11T00:57:40;92258.13;;;9.16;nan
9277;BME280;4676;42.678;23.244;2023-03-11T01:00:08;92251.63;;;9.12;nan
9277;BME280;4676;42.678;23.244;2023-03-11T01:02:36;92244.47;;;9.06;nan
9277;BME280;4676;42.678;23.244;2023-03-11T01:05:03;92251.94;;;9.08;nan
9277;BME280;4676;42.678;23.244;2023-03-11T01:07:31;92232.94;;;9.02;nan
9277;BME280;4676;42.678;23.244;2023-03-11T01:09:58;92235.19;;;9.19;nan
9277;BME280;4676;42.678;23.244;2023-03-11T01:12:26;92237.91;;;9.16;nan
9277;BME280;4676;42.678;23.244;2023-03-11T01:14:52;92236.72;;;9.22;nan
9277;BME280;4676;42.678;23.244;2023-03-11T01:17:19;92234.47;;;9.17;nan
9277;BME280;4676;42.678;23.244;2023-03-11T01:19:47;92225.19;;;9.18;nan
9277;BME280;4676;42.678;23.244;2023-03-11T01:22:14;92215.19;;;9.29;nan
9277;BME280;4676;42.678;23.244;2023-03-11T01:24:41;92203.66;;;9.25;nan
9277;BME280;4676;42.678;23.244;2023-03-11T01:27:08;92185.84;;;9.26;nan
9277;BME280;4676;42.678;23.244;2023-03-11T01:29:36;92171.09;;;9.33;nan
9277;BME280;4676;42.678;23.244;2023-03-11T01:32:03;92159.28;;;9.33;nan
9277;BME280;4676;42.678;23.244;2023-03-11T01:34:31;92166.75;;;9.35;nan
9277;BME280;4676;42.678;23.244;2023-03-11T01:37:00;92156.66;;;9.35;nan
9277;BME280;4676;42.678;23.244;2023-03-11T01:39:26;92143.59;;;9.41;nan
9277;BME280;4676;42.678;23.244;2023-03-11T01:41:53;92150.47;;;9.51;nan
9277;BME280;4676;42.678;23.244;2023-03-11T01:44:20;92137.84;;;9.39;nan
9277;BME280;4676;42.678;23.244;2023-03-11T01:49:52;92164.44;;;9.44;nan
9277;BME280;4676;42.678;23.244;2023-03-11T01:52:19;92186.97;;;9.60;nan
9277;BME280;4676;42.678;23.244;2023-03-11T01:54:46;92170.78;;;9.50;nan
9277;BME280;4676;42.678;23.244;2023-03-11T01:57:13;92196.16;;;9.61;nan
9277;BME280;4676;42.678;23.244;2023-03-11T01:59:43;92197.38;;;9.68;nan
9277;BME280;4676;42.678;23.244;2023-03-11T02:02:16;92202.63;;;9.65;nan
9277;BME280;4676;42.678;23.244;2023-03-11T02:04:45;92193.13;;;9.69;nan
9277;BME280;4676;42.678;23.244;2023-03-11T02:07:14;92200.84;;;9.67;nan
9277;BME280;4676;42.678;23.244;2023-03-11T02:09:41;92207.81;;;9.64;nan
9277;BME280;4676;42.678;23.244;2023-03-11T02:12:09;92208.59;;;9.64;nan
9277;BME280;4676;42.678;23.244;2023-03-11T02:14:41;92212.28;;;9.60;nan
9277;BME280;4676;42.678;23.244;2023-03-11T02:17:08;92220.56;;;9.62;nan
9277;BME280;4676;42.678;23.244;2023-03-11T02:19:41;92228.84;;;9.64;nan
9277;BME280;4676;42.678;23.244;2023-03-11T02:22:14;92236.94;;;9.57;nan
9277;BME280;4676;42.678;23.244;2023-03-11T02:24:45;92233.41;;;9.59;nan
9277;BME280;4676;42.678;23.244;2023-03-11T02:27:15;92242.00;;;9.57;nan
9277;BME280;4676;42.678;23.244;2023-03-11T02:29:43;92231.56;;;9.61;nan
9277;BME280;4676;42.678;23.244;2023-03-11T02:32:14;92240.56;;;9.65;nan
9277;BME280;4676;42.678;23.244;2023-03-11T02:34:41;92256.56;;;9.66;nan
9277;BME280;4676;42.678;23.244;2023-03-11T02:37:09;92250.00;;;9.63;nan
9277;BME280;4676;42.678;23.244;2023-03-11T02:39:38;92261.22;;;9.72;nan
9277;BME280;4676;42.678;23.244;2023-03-11T02:42:09;92259.00;;;9.80;nan
9277;BME280;4676;42.678;23.244;2023-03-11T02:44:41;92266.38;;;9.83;nan
9277;BME280;4676;42.678;23.244;2023-03-11T02:47:08;92250.69;;;9.90;nan
9277;BME280;4676;42.678;23.244;2023-03-11T02:49:35;92255.53;;;9.93;nan
9277;BME280;4676;42.678;23.244;2023-03-11T02:52:02;92248.97;;;9.91;nan
9277;BME280;4676;42.678;23.244;2023-03-11T02:54:29;92242.88;;;9.93;nan
9277;BME280;4676;42.678;23.244;2023-03-11T02:56:56;92242.88;;;9.93;nan
9277;BME280;4676;42.678;23.244;2023-03-11T02:59:23;92232.47;;;9.98;nan
9277;BME280;4676;42.678;23.244;2023-03-11T03:01:51;92234.47;;;9.93;nan
9277;BME280;4676;42.678;23.244;2023-03-11T03:04:18;92242.28;;;9.90;nan
9277;BME280;4676;42.678;23.244;2023-03-11T03:06:44;92244.94;;;9.88;nan
9277;BME280;4676;42.678;23.244;2023-03-11T03:09:11;92239.97;;;9.87;nan
9277;BME280;4676;42.678;23.244;2023-03-11T03:11:38;92217.91;;;9.76;nan
9277;BME280;4676;42.678;23.244;2023-03-11T03:14:05;92243.31;;;9.87;nan
9277;BME280;4676;42.678;23.244;2023-03-11T03:16:31;92238.94;;;9.89;nan
9277;BME280;4676;42.678;23.244;2023-03-11T03:18:59;92242.50;;;9.87;nan
9277;BME280;4676;42.678;23.244;2023-03-11T03:21:26;92255.22;;;9.85;nan
9277;BME280;4676;42.678;23.244;2023-03-11T03:23:53;92248.16;;;9.90;nan
9277;BME280;4676;42.678;23.244;2023-03-11T03:26:19;92239.88;;;9.76;nan
9277;BME280;4676;42.678;23.244;2023-03-11T03:28:46;92251.28;;;9.94;nan
9277;BME280;4676;42.678;23.244;2023-03-11T03:31:13;92253.72;;;9.95;nan
9277;BME280;4676;42.678;23.244;2023-03-11T03:33:39;92227.59;;;9.82;nan
9277;BME280;4676;42.678;23.244;2023-03-11T03:36:10;92257.47;;;10.02;nan
9277;BME280;4676;42.678;23.244;2023-03-11T03:38:38;92253.63;;;10.10;nan
9277;BME280;4676;42.678;23.244;2023-03-11T03:41:05;92243.50;;;10.10;nan
9277;BME280;4676;42.678;23.244;2023-03-11T03:43:32;92246.63;;;10.13;nan
9277;BME280;4676;42.678;23.244;2023-03-11T03:46:01;92256.34;;;10.19;nan
9277;BME280;4676;42.678;23.244;2023-03-11T03:48:28;92248.44;;;10.24;nan
9277;BME280;4676;42.678;23.244;2023-03-11T03:50:55;92241.56;;;10.26;nan
9277;BME280;4676;42.678;23.244;2023-03-11T03:53:23;92241.13;;;10.32;nan
9277;BME280;4676;42.678;23.244;2023-03-11T03:55:50;92237.69;;;10.33;nan
9277;BME280;4676;42.678;23.244;2023-03-11T03:58:18;92245.19;;;10.34;nan
9277;BME280;4676;42.678;23.244;2023-03-11T04:00:45;92244.84;;;10.39;nan
9277;BME280;4676;42.678;23.244;2023-03-11T04:03:12;92242.31;;;10.39;nan
9277;BME280;4676;42.678;23.244;2023-03-11T04:05:38;92243.81;;;10.41;nan
9277;BME280;4676;42.678;23.244;2023-03-11T04:08:05;92244.03;;;10.38;nan
9277;BME280;4676;42.678;23.244;2023-03-11T04:10:33;92232.53;;;10.34;nan
9277;BME280;4676;42.678;23.244;2023-03-11T04:13:00;92232.03;;;10.29;nan
9277;BME280;4676;42.678;23.244;2023-03-11T04:15:26;92236.28;;;10.29;nan
9277;BME280;4676;42.678;23.244;2023-03-11T04:17:53;92228.81;;;10.27;nan
9277;BME280;4676;42.678;23.244;2023-03-11T04:20:20;92239.13;;;10.24;nan
9277;BME280;4676;42.678;23.244;2023-03-11T04:22:46;92249.25;;;10.24;nan
9277;BME280;4676;42.678;23.244;2023-03-11T04:25:13;92248.44;;;10.24;nan
9277;BME280;4676;42.678;23.244;2023-03-11T04:27:41;92249.25;;;10.24;nan
9277;BME280;4676;42.678;23.244;2023-03-11T04:30:11;92239.03;;;10.13;nan
9277;BME280;4676;42.678;23.244;2023-03-11T04:32:38;92250.78;;;10.27;nan
9277;BME280;4676;42.678;23.244;2023-03-11T04:35:05;92254.72;;;10.31;nan
9277;BME280;4676;42.678;23.244;2023-03-11T04:37:32;92243.66;;;10.32;nan
9277;BME280;4676;42.678;23.244;2023-03-11T04:39:59;92258.03;;;10.31;nan
9277;BME280;4676;42.678;23.244;2023-03-11T04:42:26;92246.09;;;10.33;nan
9277;BME280;4676;42.678;23.244;2023-03-11T04:44:54;92261.50;;;10.30;nan
9277;BME280;4676;42.678;23.244;2023-03-11T04:47:21;92222.94;;;10.14;nan
9277;BME280;4676;42.678;23.244;2023-03-11T04:49:48;92255.03;;;10.26;nan
9277;BME280;4676;42.678;23.244;2023-03-11T04:52:14;92256.75;;;10.26;nan
9277;BME280;4676;42.678;23.244;2023-03-11T04:54:41;92251.03;;;10.35;nan
9277;BME280;4676;42.678;23.244;2023-03-11T04:57:08;92251.47;;;10.29;nan
9277;BME280;4676;42.678;23.244;2023-03-11T04:59:35;92260.91;;;10.27;nan
9277;BME280;4676;42.678;23.244;2023-03-11T05:02:03;92269.09;;;10.30;nan
9277;BME280;4676;42.678;23.244;2023-03-11T05:04:30;92272.31;;;10.32;nan
9277;BME280;4676;42.678;23.244;2023-03-11T05:06:56;92273.22;;;10.31;nan
9277;BME280;4676;42.678;23.244;2023-03-11T05:09:23;92275.50;;;10.23;nan
9277;BME280;4676;42.678;23.244;2023-03-11T05:11:50;92285.50;;;10.25;nan
9277;BME280;4676;42.678;23.244;2023-03-11T05:14:16;92290.94;;;10.31;nan
9277;BME280;4676;42.678;23.244;2023-03-11T05:16:43;92286.91;;;10.29;nan
9277;BME280;4676;42.678;23.244;2023-03-11T05:19:11;92302.69;;;10.32;nan
9277;BME280;4676;42.678;23.244;2023-03-11T05:21:56;92295.81;;;10.34;nan
9277;BME280;4676;42.678;23.244;2023-03-11T05:24:23;92302.81;;;10.31;nan
9277;BME280;4676;42.678;23.244;2023-03-11T05:26:51;92303.28;;;10.36;nan
9277;BME280;4676;42.678;23.244;2023-03-11T05:29:17;92298.66;;;10.30;nan
9277;BME280;4676;42.678;23.244;2023-03-11T05:31:44;92310.41;;;10.31;nan
9277;BME280;4676;42.678;23.244;2023-03-11T05:34:12;92315.25;;;10.34;nan
9277;BME280;4676;42.678;23.244;2023-03-11T05:36:39;92312.72;;;10.21;nan
9277;BME280;4676;42.678;23.244;2023-03-11T05:39:07;92313.72;;;10.31;nan
9277;BME280;4676;42.678;23.244;2023-03-11T05:41:33;92312.34;;;10.27;nan
9277;BME280;4676;42.678;23.244;2023-03-11T05:44:00;92321.75;;;10.25;nan
9277;BME280;4676;42.678;23.244;2023-03-11T05:46:27;92303.84;;;10.16;nan
9277;BME280;4676;42.678;23.244;2023-03-11T05:48:54;92330.84;;;10.28;nan
9277;BME280;4676;42.678;23.244;2023-03-11T05:51:22;92331.19;;;10.23;nan
9277;BME280;4676;42.678;23.244;2023-03-11T05:53:49;92331.19;;;10.23;nan
9277;BME280;4676;42.678;23.244;2023-03-11T05:56:16;92336.53;;;10.19;nan
9277;BME280;4676;42.678;23.244;2023-03-11T05:58:43;92346.25;;;10.25;nan
9277;BME280;4676;42.678;23.244;2023-03-11T06:01:12;92344.81;;;10.21;nan
9277;BME280;4676;42.678;23.244;2023-03-11T06:03:39;92340.19;;;10.15;nan
9277;BME280;4676;42.678;23.244;2023-03-11T06:06:08;92346.06;;;10.15;nan
9277;BME280;4676;42.678;23.244;2023-03-11T06:08:37;92353.66;;;10.15;nan
9277;BME280;4676;42.678;23.244;2023-03-11T06:11:06;92356.56;;;10.09;nan
9277;BME280;4676;42.678;23.244;2023-03-11T06:13:33;92354.22;;;10.06;nan
9277;BME280;4676;42.678;23.244;2023-03-11T06:16:00;92357.16;;;10.00;nan
9277;BME280;4676;42.678;23.244;2023-03-11T06:18:27;92286.91;;;9.66;nan
9277;BME280;4676;42.678;23.244;2023-03-11T06:20:56;92358.78;;;10.01;nan
9277;BME280;4676;42.678;23.244;2023-03-11T06:23:23;92360.50;;;10.00;nan
9277;BME280;4676;42.678;23.244;2023-03-11T06:25:55;92350.88;;;9.93;nan
9277;BME280;4676;42.678;23.244;2023-03-11T06:28:22;92349.97;;;9.94;nan
9277;BME280;4676;42.678;23.244;2023-03-11T06:30:49;92351.69;;;9.93;nan
9277;BME280;4676;42.678;23.244;2023-03-11T06:33:16;92355.53;;;9.99;nan
9277;BME280;4676;42.678;23.244;2023-03-11T06:35:43;92352.41;;;9.95;nan
9277;BME280;4676;42.678;23.244;2023-03-11T06:38:10;92349.97;;;9.94;nan
9277;BME280;4676;42.678;23.244;2023-03-11T06:40:37;92356.53;;;9.96;nan
9277;BME280;4676;42.678;23.244;2023-03-11T06:43:05;92361.38;;;9.99;nan
9277;BME280;4676;42.678;23.244;2023-03-11T06:45:32;92364.84;;;9.98;nan
9277;BME280;4676;42.678;23.244;2023-03-11T06:47:59;92350.88;;;9.93;nan
9277;BME280;4676;42.678;23.244;2023-03-11T06:50:25;92353.81;;;9.99;nan
9277;BME280;4676;42.678;23.244;2023-03-11T06:52:53;92360.91;;;10.07;nan
9277;BME280;4676;42.678;23.244;2023-03-11T06:55:20;92355.63;;;10.10;nan
9277;BME280;4676;42.678;23.244;2023-03-11T06:57:46;92372.25;;;10.14;nan
9277;BME280;4676;42.678;23.244;2023-03-11T07:00:15;92360.91;;;10.07;nan
9277;BME280;4676;42.678;23.244;2023-03-11T07:02:42;92370.34;;;10.18;nan
9277;BME280;4676;42.678;23.244;2023-03-11T07:05:09;92369.34;;;10.20;nan
9277;BME280;4676;42.678;23.244;2023-03-11T07:07:36;92361.44;;;10.25;nan
9277;BME280;4676;42.678;23.244;2023-03-11T07:10:04;92366.09;;;10.31;nan
9277;BME280;4676;42.678;23.244;2023-03-11T07:12:31;92356.69;;;10.33;nan
9277;BME280;4676;42.678;23.244;2023-03-11T07:14:58;92355.78;;;10.34;nan
9277;BME280;4676;42.678;23.244;2023-03-11T07:17:27;92349.47;;;10.39;nan
9277;BME280;4676;42.678;23.244;2023-03-11T07:19:53;92343.69;;;10.50;nan
9277;BME280;4676;42.678;23.244;2023-03-11T07:22:20;92349.28;;;10.55;nan
9277;BME280;4676;42.678;23.244;2023-03-11T07:24:48;92324.84;;;10.41;nan
9277;BME280;4676;42.678;23.244;2023-03-11T07:27:15;92349.31;;;10.66;nan
9277;BME280;4676;42.678;23.244;2023-03-11T07:29:42;92355.03;;;10.57;nan
9277;BME280;4676;42.678;23.244;2023-03-11T07:32:08;92336.78;;;10.65;nan
9277;BME280;4676;42.678;23.244;2023-03-11T07:34:37;92340.91;;;10.78;nan
9277;BME280;4676;42.678;23.244;2023-03-11T07:37:04;92336.22;;;10.85;nan
9277;BME280;4676;42.678;23.244;2023-03-11T07:39:30;92336.38;;;10.94;nan
9277;BME280;4676;42.678;23.244;2023-03-11T07:41:57;92333.06;;;11.18;nan
9277;BME280;4676;42.678;23.244;2023-03-11T07:44:24;92328.06;;;11.40;nan
9277;BME280;4676;42.678;23.244;2023-03-11T07:46:50;92317.16;;;11.50;nan
9277;BME280;4676;42.678;23.244;2023-03-11T07:49:17;92313.06;;;11.61;nan
9277;BME280;4676;42.678;23.244;2023-03-11T07:51:45;92314.53;;;11.87;nan
9277;BME280;4676;42.678;23.244;2023-03-11T07:54:12;92315.78;;;11.81;nan
9277;BME280;4676;42.678;23.244;2023-03-11T07:56:38;92314.19;;;11.91;nan
9277;BME280;4676;42.678;23.244;2023-03-11T07:59:05;92315.13;;;12.01;nan
9277;BME280;4676;42.678;23.244;2023-03-11T08:01:33;92307.06;;;12.08;nan
9277;BME280;4676;42.678;23.244;2023-03-11T08:04:04;92298.06;;;12.26;nan
9277;BME280;4676;42.678;23.244;2023-03-11T08:06:32;92293.56;;;12.29;nan
9277;BME280;4676;42.678;23.244;2023-03-11T08:09:03;92289.31;;;12.41;nan
9277;BME280;4676;42.678;23.244;2023-03-11T08:11:30;92280.88;;;12.51;nan
9277;BME280;4676;42.678;23.244;2023-03-11T08:13:57;92270.69;;;12.63;nan
9277;BME280;4676;42.678;23.244;2023-03-11T08:16:24;92259.47;;;12.65;nan
9277;BME280;4676;42.678;23.244;2023-03-11T08:18:52;92248.72;;;12.73;nan
9277;BME280;4676;42.678;23.244;2023-03-11T08:21:20;92232.78;;;12.60;nan
9277;BME280;4676;42.678;23.244;2023-03-11T08:23:47;92265.78;;;12.82;nan
9277;BME280;4676;42.678;23.244;2023-03-11T08:26:17;92263.59;;;12.77;nan
9277;BME280;4676;42.678;23.244;2023-03-11T08:28:44;92244.91;;;12.67;nan
9277;BME280;4676;42.678;23.244;2023-03-11T08:31:11;92246.50;;;12.90;nan
9277;BME280;4676;42.678;23.244;2023-03-11T08:33:39;92242.88;;;12.93;nan
9277;BME280;4676;42.678;23.244;2023-03-11T08:36:06;92242.84;;;13.04;nan
9277;BME280;4676;42.678;23.244;2023-03-11T08:38:33;92237.88;;;13.02;nan
9277;BME280;4676;42.678;23.244;2023-03-11T08:41:00;92236.28;;;13.01;nan
9277;BME280;4676;42.678;23.244;2023-03-11T08:43:28;92237.50;;;13.18;nan
9277;BME280;4676;42.678;23.244;2023-03-11T08:45:54;92231.56;;;13.29;nan
9277;BME280;4676;42.678;23.244;2023-03-11T08:48:21;92234.38;;;13.26;nan
9277;BME280;4676;42.678;23.244;2023-03-11T08:50:50;92224.63;;;13.31;nan
9277;BME280;4676;42.678;23.244;2023-03-11T08:53:16;92235.19;;;13.47;nan
9277;BME280;4676;42.678;23.244;2023-03-11T08:55:43;92228.69;;;13.54;nan
9277;BME280;4676;42.678;23.244;2023-03-11T08:58:10;92231.81;;;13.67;nan
9277;BME280;4676;42.678;23.244;2023-03-11T09:00:38;92228.53;;;13.56;nan
9277;BME280;4676;42.678;23.244;2023-03-11T09:03:05;92230.91;;;13.68;nan
9277;BME280;4676;42.678;23.244;2023-03-11T09:05:31;92223.31;;;13.78;nan
9277;BME280;4676;42.678;23.244;2023-03-11T09:07:58;92226.16;;;13.84;nan
9277;BME280;4676;42.678;23.244;2023-03-11T09:10:26;92233.47;;;13.98;nan
9277;BME280;4676;42.678;23.244;2023-03-11T09:12:53;92231.59;;;14.00;nan
9277;BME280;4676;42.678;23.244;2023-03-11T09:15:20;92227.53;;;13.88;nan
9277;BME280;4676;42.678;23.244;2023-03-11T09:17:48;92213.00;;;13.79;nan
9277;BME280;4676;42.678;23.244;2023-03-11T09:20:15;92214.34;;;13.83;nan
9277;BME280;4676;42.678;23.244;2023-03-11T09:22:41;92221.63;;;13.88;nan
9277;BME280;4676;42.678;23.244;2023-03-11T09:25:09;92211.69;;;13.85;nan
9277;BME280;4676;42.678;23.244;2023-03-11T09:27:37;92209.69;;;13.88;nan
9277;BME280;4676;42.678;23.244;2023-03-11T09:30:06;92204.94;;;14.05;nan
9277;BME280;4676;42.678;23.244;2023-03-11T09:35:08;92191.56;;;14.12;nan
9277;BME280;4676;42.678;23.244;2023-03-11T09:37:34;92190.03;;;14.30;nan
9277;BME280;4676;42.678;23.244;2023-03-11T09:40:01;92187.81;;;14.46;nan
9277;BME280;4676;42.678;23.244;2023-03-11T09:42:33;92203.31;;;14.83;nan
9277;BME280;4676;42.678;23.244;2023-03-11T09:45:07;92200.78;;;15.12;nan
9277;BME280;4676;42.678;23.244;2023-03-11T09:47:39;92213.16;;;15.26;nan
9277;BME280;4676;42.678;23.244;2023-03-11T09:50:22;92209.50;;;15.29;nan
9277;BME280;4676;42.678;23.244;2023-03-11T09:53:05;92208.44;;;15.41;nan
9277;BME280;4676;42.678;23.244;2023-03-11T09:55:42;92209.78;;;15.35;nan
9277;BME280;4676;42.678;23.244;2023-03-11T09:58:12;92213.97;;;15.27;nan
9277;BME280;4676;42.678;23.244;2023-03-11T10:00:42;92212.59;;;14.94;nan
9277;BME280;4676;42.678;23.244;2023-03-11T10:03:16;92214.72;;;14.79;nan
9277;BME280;4676;42.678;23.244;2023-03-11T10:05:50;92207.19;;;14.28;nan
9277;BME280;4676;42.678;23.244;2023-03-11T10:08:23;92212.97;;;14.30;nan
9277;BME280;4676;42.678;23.244;2023-03-11T10:10:58;92220.25;;;14.35;nan
9277;BME280;4676;42.678;23.244;2023-03-11T10:13:35;92215.72;;;14.38;nan
9277;BME280;4676;42.678;23.244;2023-03-11T10:16:11;92210.47;;;14.40;nan
9277;BME280;4676;42.678;23.244;2023-03-11T10:18:49;92219.94;;;14.28;nan
9277;BME280;4676;42.678;23.244;2023-03-11T10:21:31;92214.44;;;14.33;nan
9277;BME280;4676;42.678;23.244;2023-03-11T10:24:13;92222.97;;;14.22;nan
9277;BME280;4676;42.678;23.244;2023-03-11T10:26:44;92198.09;;;14.05;nan
9277;BME280;4676;42.678;23.244;2023-03-11T10:29:16;92226.16;;;14.15;nan
9277;BME280;4676;42.678;23.244;2023-03-11T10:31:49;92215.94;;;14.05;nan
9277;BME280;4676;42.678;23.244;2023-03-11T10:34:24;92223.81;;;13.92;nan
9277;BME280;4676;42.678;23.244;2023-03-11T10:36:58;92219.84;;;13.79;nan
9277;BME280;4676;42.678;23.244;2023-03-11T10:39:28;92222.06;;;13.72;nan
9277;BME280;4676;42.678;23.244;2023-03-11T10:41:58;92224.19;;;13.67;nan
9277;BME280;4676;42.678;23.244;2023-03-11T10:44:28;92218.91;;;13.59;nan
9277;BME280;4676;42.678;23.244;2023-03-11T10:46:57;92220.69;;;13.47;nan
9277;BME280;4676;42.678;23.244;2023-03-11T10:49:24;92230.16;;;13.36;nan
9277;BME280;4676;42.678;23.244;2023-03-11T10:51:52;92235.25;;;13.36;nan
9277;BME280;4676;42.678;23.244;2023-03-11T10:54:24;92234.19;;;13.38;nan
9277;BME280;4676;42.678;23.244;2023-03-11T10:56:55;92227.06;;;13.53;nan
9277;BME280;4676;42.678;23.244;2023-03-11T10:59:26;92225.72;;;13.59;nan
9277;BME280;4676;42.678;23.244;2023-03-11T11:01:54;92233.00;;;13.63;nan
9277;BME280;4676;42.678;23.244;2023-03-11T11:04:33;92224.16;;;13.88;nan
9277;BME280;4676;42.678;23.244;2023-03-11T11:07:20;92231.72;;;13.99;nan
9277;BME280;4676;42.678;23.244;2023-03-11T11:10:12;92234.56;;;14.06;nan
9277;BME280;4676;42.678;23.244;2023-03-11T11:12:51;92224.94;;;14.09;nan
9277;BME280;4676;42.678;23.244;2023-03-11T11:15:23;92201.69;;;13.93;nan
9277;BME280;4676;42.678;23.244;2023-03-11T11:17:51;92204.06;;;13.85;nan
9277;BME280;4676;42.678;23.244;2023-03-11T11:20:21;92216.91;;;13.83;nan
9277;BME280;4676;42.678;23.244;2023-03-11T11:22:51;92204.94;;;13.74;nan
9277;BME280;4676;42.678;23.244;2023-03-11T11:25:28;92199.59;;;13.77;nan
9277;BME280;4676;42.678;23.244;2023-03-11T11:27:57;92195.94;;;13.70;nan
9277;BME280;4676;42.678;23.244;2023-03-11T11:30:24;92185.72;;;13.61;nan
9277;BME280;4676;42.678;23.244;2023-03-11T11:32:51;92179.66;;;13.62;nan
9277;BME280;4676;42.678;23.244;2023-03-11T11:35:21;92173.94;;;13.69;nan
9277;BME280;4676;42.678;23.244;2023-03-11T11:37:50;92163.94;;;13.77;nan
9277;BME280;4676;42.678;23.244;2023-03-11T11:40:27;92158.56;;;13.71;nan
9277;BME280;4676;42.678;23.244;2023-03-11T11:42:56;92158.19;;;13.75;nan
9277;BME280;4676;42.678;23.244;2023-03-11T11:45:36;92146.63;;;14.01;nan
9277;BME280;4676;42.678;23.244;2023-03-11T11:48:10;92145.50;;;14.25;nan
9277;BME280;4676;42.678;23.244;2023-03-11T11:50:41;92132.00;;;14.34;nan
9277;BME280;4676;42.678;23.244;2023-03-11T11:53:18;92147.56;;;14.50;nan
9277;BME280;4676;42.678;23.244;2023-03-11T11:55:49;92150.53;;;14.45;nan
9277;BME280;4676;42.678;23.244;2023-03-11T11:58:17;92154.41;;;14.49;nan
9277;BME280;4676;42.678;23.244;2023-03-11T12:00:52;92150.44;;;14.76;nan
9277;BME280;4676;42.678;23.244;2023-03-11T12:03:47;92153.78;;;14.95;nan
9277;BME280;4676;42.678;23.244;2023-03-11T12:06:21;92168.53;;;14.92;nan
9277;BME280;4676;42.678;23.244;2023-03-11T12:08:58;92150.16;;;14.79;nan
9277;BME280;4676;42.678;23.244;2023-03-11T12:11:36;92135.81;;;14.97;nan
9277;BME280;4676;42.678;23.244;2023-03-11T12:14:08;92143.31;;;15.08;nan
9277;BME280;4676;42.678;23.244;2023-03-11T12:16:41;92112.72;;;14.89;nan
9277;BME280;4676;42.678;23.244;2023-03-11T12:19:22;92137.69;;;15.05;nan
9277;BME280;4676;42.678;23.244;2023-03-11T12:22:20;92138.59;;;15.13;nan
9277;BME280;4676;42.678;23.244;2023-03-11T12:25:10;92134.13;;;15.34;nan
9277;BME280;4676;42.678;23.244;2023-03-11T12:27:50;92135.75;;;15.55;nan
9277;BME280;4676;42.678;23.244;2023-03-11T12:30:21;92134.25;;;15.62;nan
9277;BME280;4676;42.678;23.244;2023-03-11T12:32:53;92133.84;;;15.57;nan
9277;BME280;4676;42.678;23.244;2023-03-11T12:35:23;92146.25;;;15.23;nan
9277;BME280;4676;42.678;23.244;2023-03-11T12:37:56;92135.66;;;15.18;nan
9277;BME280;4676;42.678;23.244;2023-03-11T12:40:57;92141.97;;;14.94;nan
9277;BME280;4676;42.678;23.244;2023-03-11T12:46:09;92151.34;;;14.65;nan
9277;BME280;4676;42.678;23.244;2023-03-11T12:48:41;92150.81;;;14.62;nan
9277;BME280;4676;42.678;23.244;2023-03-11T12:51:36;92146.91;;;14.38;nan
9277;BME280;4676;42.678;23.244;2023-03-11T12:54:26;92151.81;;;14.30;nan
9277;BME280;4676;42.678;23.244;2023-03-11T12:56:56;92157.09;;;14.08;nan
9277;BME280;4676;42.678;23.244;2023-03-11T13:02:35;92165.78;;;13.96;nan
9277;BME280;4676;42.678;23.244;2023-03-11T13:05:19;92179.31;;;13.96;nan
9277;BME280;4676;42.678;23.244;2023-03-11T13:07:48;92176.56;;;13.79;nan
9277;BME280;4676;42.678;23.244;2023-03-11T13:10:20;92180.38;;;13.64;nan
9277;BME280;4676;42.678;23.244;2023-03-11T13:12:58;92181.44;;;13.40;nan
9277;BME280;4676;42.678;23.244;2023-03-11T13:15:32;92196.22;;;13.46;nan
9277;BME280;4676;42.678;23.244;2023-03-11T13:18:01;92207.25;;;13.36;nan
9277;BME280;4676;42.678;23.244;2023-03-11T13:20:48;92204.88;;;13.23;nan
9277;BME280;4676;42.678;23.244;2023-03-11T13:23:30;92231.63;;;13.07;nan
9277;BME280;4676;42.678;23.244;2023-03-11T13:29:28;92260.31;;;11.88;nan
9277;BME280;4676;42.678;23.244;2023-03-11T13:32:20;92262.34;;;11.26;nan
9277;BME280;4676;42.678;23.244;2023-03-11T13:34:57;92275.31;;;10.86;nan
9277;BME280;4676;42.678;23.244;2023-03-11T13:37:34;92271.59;;;10.43;nan
9277;BME280;4676;42.678;23.244;2023-03-11T13:40:11;92275.78;;;10.19;nan
9277;BME280;4676;42.678;23.244;2023-03-11T13:42:44;92278.09;;;9.96;nan
9277;BME280;4676;42.678;23.244;2023-03-11T13:45:24;92279.94;;;9.94;nan
9277;BME280;4676;42.678;23.244;2023-03-11T13:47:57;92290.16;;;9.80;nan
9277;BME280;4676;42.678;23.244;2023-03-11T13:50:27;92272.97;;;9.60;nan
9277;BME280;4676;42.678;23.244;2023-03-11T13:52:57;92282.75;;;9.52;nan
9277;BME280;4676;42.678;23.244;2023-03-11T13:55:29;92270.50;;;9.59;nan
9277;BME280;4676;42.678;23.244;2023-03-11T13:57:57;92265.28;;;9.74;nan
9277;BME280;4676;42.678;23.244;2023-03-11T14:00:26;92265.25;;;9.87;nan
9277;BME280;4676;42.678;23.244;2023-03-11T14:02:56;92268.19;;;9.93;nan
9277;BME280;4676;42.678;23.244;2023-03-11T14:05:25;92269.22;;;9.91;nan